Ext Cotto Mabu, Puerto Rico
Current Conditions -  °F | °C
As of 1:53 PM on Monday 20 Oct 2014 (Local Time) from TJNR Reporting Station
Clear Clear  
Wind Chill: 88°   Ceiling: Unl
Heat Index: 98°   Visibility: 10mi
Dew Point: 75°   Wind: 12mph
Humidity: 65%   Direction: 50°NE
Pressure: 29.95"   Gusts: NA
Location:  18.1494°N, 65.8294°W
Report Text: TJNR 201753Z AUTO 05010KT 10SM CLR 31/24 A2995 RMK AO2 SLP143 T03110239 10311 20283 56021
Loading
Personal Weather Stations






























Interactive Weather Map
Tropical Storm Tracking
New forecast layout! Learn more

10-Day Weather Forecast

Advertisements
Track Severe Weather on mobile